createdAt,value
2022-08-07T00:02:39.614Z,25.62
2022-08-07T00:05:01.311Z,25.64
2022-08-07T00:07:39.236Z,25.68
2022-08-07T00:10:26.034Z,25.67
2022-08-07T00:12:59.747Z,25.70
2022-08-07T00:15:38.360Z,25.69
2022-08-07T00:18:24.351Z,25.65
2022-08-07T00:21:56.288Z,25.66
2022-08-07T00:23:58.747Z,25.68
2022-08-07T00:26:31.408Z,25.66
2022-08-07T00:29:14.245Z,25.62
2022-08-07T00:31:43.250Z,25.58
2022-08-07T00:34:11.311Z,25.59
2022-08-07T00:36:42.930Z,25.59
2022-08-07T00:39:12.886Z,25.58
2022-08-07T00:42:02.427Z,25.59
2022-08-07T00:44:35.116Z,25.64
2022-08-07T00:47:16.005Z,25.69
2022-08-07T00:50:20.850Z,25.77
2022-08-07T00:52:41.750Z,25.83
2022-08-07T00:55:17.469Z,25.86
2022-08-07T00:57:55.702Z,25.90
2022-08-07T01:00:23.686Z,25.94
2022-08-07T01:02:52.063Z,25.96
2022-08-07T01:07:38.177Z,26.02
2022-08-07T01:10:10.884Z,25.96
2022-08-07T01:12:54.042Z,25.94
2022-08-07T01:16:00.581Z,25.88
2022-08-07T01:18:17.698Z,25.85
2022-08-07T01:20:57.363Z,25.83
2022-08-07T01:23:36.353Z,25.78
2022-08-07T01:26:13.492Z,25.76
2022-08-07T01:28:48.424Z,25.71
2022-08-07T01:31:21.137Z,25.66
2022-08-07T01:33:56.310Z,25.62
2022-08-07T01:36:33.485Z,25.57
2022-08-07T01:39:10.104Z,25.56
2022-08-07T01:42:07.899Z,25.58
2022-08-07T01:44:30.650Z,25.56
2022-08-07T01:47:01.228Z,25.54
2022-08-07T01:49:43.691Z,25.52
2022-08-07T01:52:12.587Z,25.48
2022-08-07T01:54:43.114Z,25.43
2022-08-07T01:57:24.615Z,25.36
2022-08-07T02:00:13.884Z,25.32
2022-08-07T02:03:19.301Z,25.27
2022-08-07T02:05:47.943Z,25.21
2022-08-07T02:08:25.717Z,25.20
2022-08-07T02:10:57.976Z,25.19
2022-08-07T02:13:56.786Z,25.17
2022-08-07T02:16:19.921Z,25.15
2022-08-07T02:18:56.497Z,25.17
2022-08-07T02:21:25.077Z,25.21
2022-08-07T02:23:53.259Z,25.28
2022-08-07T02:26:34.360Z,25.33
2022-08-07T02:29:04.145Z,25.31
2022-08-07T02:31:32.727Z,25.30
2022-08-07T02:34:04.169Z,25.25
2022-08-07T02:36:42.186Z,25.17
2022-08-07T02:39:17.361Z,25.07
2022-08-07T02:42:03.211Z,24.99
2022-08-07T02:44:43.370Z,24.92
2022-08-07T02:47:19.776Z,24.86
2022-08-07T02:49:55.948Z,24.81
2022-08-07T02:53:03.256Z,24.80
2022-08-07T02:56:02.227Z,24.95
2022-08-07T02:58:21.854Z,25.17
2022-08-07T03:00:51.842Z,25.33
2022-08-07T03:03:22.604Z,25.45
2022-08-07T03:05:54.268Z,25.56
2022-08-07T03:08:27.040Z,25.66
2022-08-07T03:10:59.219Z,25.75
2022-08-07T03:13:38.712Z,25.80
2022-08-07T03:16:08.576Z,25.79
2022-08-07T03:18:38.488Z,25.82
2022-08-07T03:21:08.224Z,25.86
2022-08-07T03:24:20.998Z,25.91
2022-08-07T03:26:25.375Z,25.94
2022-08-07T03:28:54.943Z,25.98
2022-08-07T03:31:23.700Z,25.97
2022-08-07T03:34:00.980Z,25.95
2022-08-07T03:36:30.381Z,25.96
2022-08-07T03:39:05.478Z,25.99
2022-08-07T03:41:42.135Z,26.05
2022-08-07T03:44:15.633Z,26.11
2022-08-07T03:47:11.081Z,26.17
2022-08-07T03:49:36.868Z,26.22
2022-08-07T03:52:04.734Z,26.26
2022-08-07T03:54:35.624Z,26.29
2022-08-07T03:58:34.296Z,26.32
2022-08-07T04:00:10.590Z,26.34
2022-08-07T04:02:47.285Z,26.36
2022-08-07T04:05:28.629Z,26.39
2022-08-07T04:08:07.407Z,26.41
2022-08-07T04:10:42.361Z,26.42
2022-08-07T04:13:15.179Z,26.41
2022-08-07T04:15:43.455Z,26.43
2022-08-07T04:18:56.975Z,26.40
2022-08-07T04:21:02.098Z,26.41
2022-08-07T04:23:43.763Z,26.44
2022-08-07T04:26:21.883Z,26.38
2022-08-07T04:28:49.842Z,26.30
2022-08-07T04:31:20.262Z,26.24
2022-08-07T04:34:16.644Z,26.27
2022-08-07T04:36:49.473Z,26.25
2022-08-07T04:39:19.275Z,26.24
2022-08-07T04:41:54.042Z,26.19
2022-08-07T04:44:21.489Z,26.20
2022-08-07T04:47:08.698Z,26.24
2022-08-07T04:49:57.379Z,26.34
2022-08-07T04:52:51.253Z,26.46
2022-08-07T04:58:12.485Z,26.59
2022-08-07T04:58:47.537Z,26.68
2022-08-07T05:01:39.863Z,26.80
2022-08-07T05:04:18.090Z,26.92
2022-08-07T05:06:51.518Z,27.03
2022-08-07T05:09:45.973Z,27.13
2022-08-07T05:12:26.775Z,27.23
2022-08-07T05:15:21.652Z,27.32
2022-08-07T05:18:01.576Z,27.45
2022-08-07T05:20:40.169Z,27.58
2022-08-07T05:23:15.851Z,27.69
2022-08-07T05:26:10.549Z,27.81
2022-08-07T05:28:34.837Z,27.95
2022-08-07T05:31:02.153Z,28.07
2022-08-07T05:33:35.616Z,28.18
2022-08-07T05:36:05.785Z,28.26
2022-08-07T05:39:00.263Z,28.34
2022-08-07T05:41:22.145Z,28.44
2022-08-07T05:44:12.410Z,28.55
2022-08-07T05:46:43.703Z,28.68
2022-08-07T05:49:13.103Z,28.80
2022-08-07T05:51:46.429Z,28.89
2022-08-07T05:54:30.822Z,28.97
2022-08-07T05:56:59.888Z,29.08
2022-08-07T05:59:27.984Z,29.15
2022-08-07T06:02:00.282Z,29.22
2022-08-07T06:04:30.161Z,29.27
2022-08-07T06:07:03.403Z,29.29
2022-08-07T06:10:03.762Z,29.32
2022-08-07T06:12:20.892Z,29.32
2022-08-07T06:14:49.860Z,29.34
2022-08-07T06:17:19.663Z,29.40
2022-08-07T06:20:03.797Z,29.41
2022-08-07T06:22:38.943Z,29.39
2022-08-07T06:25:28.043Z,29.41
2022-08-07T06:28:04.599Z,29.42
2022-08-07T06:30:37.353Z,29.39
2022-08-07T06:33:16.097Z,29.41
2022-08-07T06:35:47.676Z,29.45
2022-08-07T06:38:32.846Z,29.51
2022-08-07T06:41:04.270Z,29.51
2022-08-07T06:43:40.039Z,29.50
2022-08-07T06:46:12.647Z,29.51
2022-08-07T06:48:41.992Z,29.51
2022-08-07T06:51:24.551Z,29.48
2022-08-07T06:55:34.051Z,29.53
2022-08-07T06:56:51.623Z,29.61
2022-08-07T07:00:13.187Z,29.67
2022-08-07T07:02:48.106Z,29.74
2022-08-07T07:05:08.775Z,29.79
2022-08-07T07:07:59.771Z,29.80
2022-08-07T07:10:33.539Z,29.83
2022-08-07T07:13:15.198Z,29.86
2022-08-07T07:15:51.720Z,29.86
2022-08-07T07:18:46.838Z,29.90
2022-08-07T07:21:27.213Z,29.90
2022-08-07T07:24:12.687Z,29.91
2022-08-07T07:26:40.506Z,29.92
2022-08-07T07:29:56.835Z,29.98
2022-08-07T07:32:02.716Z,30.05
2022-08-07T07:34:31.917Z,30.09
2022-08-07T07:37:14.389Z,30.14
2022-08-07T07:39:54.835Z,30.24
2022-08-07T07:42:32.521Z,30.32
2022-08-07T07:45:04.953Z,30.43
2022-08-07T07:47:51.731Z,30.51
2022-08-07T07:50:34.011Z,30.55
2022-08-07T07:53:23.273Z,30.58
2022-08-07T07:57:07.260Z,30.64
2022-08-07T07:59:51.520Z,30.74
2022-08-07T08:02:35.316Z,30.81
2022-08-07T08:05:14.259Z,30.88
2022-08-07T08:07:59.657Z,30.94
2022-08-07T08:10:35.655Z,30.99
2022-08-07T08:13:10.577Z,31.05
2022-08-07T08:15:58.086Z,31.11
2022-08-07T08:18:52.266Z,31.19
2022-08-07T08:21:56.942Z,31.28
2022-08-07T08:25:04.509Z,31.35
2022-08-07T08:28:01.896Z,31.38
2022-08-07T08:30:42.494Z,31.42
2022-08-07T08:33:17.922Z,31.48
2022-08-07T08:36:18.955Z,31.57
2022-08-07T08:39:06.499Z,31.65
2022-08-07T08:41:58.519Z,31.68
2022-08-07T08:44:45.667Z,31.68
2022-08-07T08:47:54.888Z,31.68
2022-08-07T08:50:28.359Z,31.69
2022-08-07T08:53:30.557Z,31.72
2022-08-07T08:56:12.239Z,31.79
2022-08-07T08:59:02.331Z,31.84
2022-08-07T09:01:43.989Z,31.86
2022-08-07T09:04:28.773Z,31.87
2022-08-07T09:07:46.608Z,31.87
2022-08-07T09:10:27.984Z,31.88
2022-08-07T09:13:09.752Z,31.93
2022-08-07T09:16:21.700Z,31.99
2022-08-07T09:18:58.460Z,32.05
2022-08-07T09:21:33.831Z,32.11
2022-08-07T09:24:53.999Z,32.16
2022-08-07T09:27:54.735Z,32.18
2022-08-07T09:30:27.924Z,32.22
2022-08-07T09:33:05.342Z,32.28
2022-08-07T09:36:04.741Z,32.33
2022-08-07T09:38:50.270Z,32.37
2022-08-07T09:41:58.690Z,32.36
2022-08-07T09:47:50.042Z,32.35
2022-08-07T09:48:12.079Z,32.38
2022-08-07T09:51:25.899Z,32.39
2022-08-07T09:54:00.609Z,32.36
2022-08-07T09:56:58.900Z,32.34
2022-08-07T09:59:35.833Z,32.34
2022-08-07T10:02:35.470Z,32.34
2022-08-07T10:05:58.288Z,32.38
2022-08-07T10:08:23.497Z,32.42
2022-08-07T10:11:16.830Z,32.38
2022-08-07T10:14:02.468Z,32.35
2022-08-07T10:16:48.781Z,32.36
2022-08-07T10:20:03.098Z,32.34
2022-08-07T10:23:14.731Z,32.33
2022-08-07T10:27:01.968Z,32.35
2022-08-07T10:30:44.760Z,32.36
2022-08-07T10:34:05.532Z,32.36
2022-08-07T10:37:12.751Z,32.38
2022-08-07T10:43:08.309Z,32.52
2022-08-07T10:45:58.190Z,32.58
2022-08-07T10:48:39.666Z,32.59
2022-08-07T10:52:02.071Z,32.62
2022-08-07T10:54:29.506Z,32.66
2022-08-07T10:57:18.479Z,32.65
2022-08-07T11:00:36.157Z,32.70
2022-08-07T11:03:10.901Z,32.79
2022-08-07T11:06:33.409Z,32.82
2022-08-07T11:09:11.795Z,32.81
2022-08-07T11:12:11.792Z,32.84
2022-08-07T11:14:59.830Z,32.89
2022-08-07T11:17:54.167Z,32.92
2022-08-07T11:20:42.908Z,32.92
2022-08-07T11:23:38.618Z,32.91
2022-08-07T11:26:29.209Z,32.93
2022-08-07T11:29:40.866Z,32.96
2022-08-07T11:32:36.243Z,32.99
2022-08-07T11:35:10.462Z,33.03
2022-08-07T11:37:58.232Z,33.03
2022-08-07T11:40:59.157Z,33.02
2022-08-07T11:43:54.449Z,33.03
2022-08-07T11:46:41.140Z,33.02
2022-08-07T11:50:18.499Z,33.01
2022-08-07T11:52:55.443Z,32.99
2022-08-07T11:56:09.114Z,33.02
2022-08-07T11:58:50.262Z,33.06
2022-08-07T12:02:00.013Z,33.05
2022-08-07T12:05:01.055Z,33.05
2022-08-07T12:07:44.100Z,33.06
2022-08-07T12:10:48.540Z,33.05
2022-08-07T12:13:53.162Z,33.06
2022-08-07T12:16:30.662Z,33.08
2022-08-07T12:19:02.129Z,33.13
2022-08-07T12:22:39.046Z,33.15
2022-08-07T12:26:03.391Z,33.17
2022-08-07T12:28:45.581Z,33.14
2022-08-07T12:31:52.408Z,33.12
2022-08-07T12:34:23.038Z,33.12
2022-08-07T12:36:53.908Z,33.12
2022-08-07T12:39:44.843Z,33.13
2022-08-07T12:42:08.331Z,33.16
2022-08-07T12:44:36.131Z,33.23
2022-08-07T12:47:11.575Z,33.31
2022-08-07T12:50:06.550Z,33.37
2022-08-07T12:53:05.176Z,33.43
2022-08-07T12:56:02.857Z,33.44
2022-08-07T12:58:39.301Z,33.43
2022-08-07T13:01:16.627Z,33.41
2022-08-07T13:04:02.408Z,33.40
2022-08-07T13:06:54.517Z,33.43
2022-08-07T13:10:28.852Z,33.41
2022-08-07T13:12:33.467Z,33.42
2022-08-07T13:15:34.598Z,33.45
2022-08-07T13:18:25.811Z,33.48
2022-08-07T13:21:37.715Z,33.51
2022-08-07T13:25:54.192Z,33.58
2022-08-07T13:28:38.452Z,33.57
2022-08-07T13:31:13.043Z,33.58
2022-08-07T13:34:32.937Z,33.60
2022-08-07T13:37:10.800Z,33.61
2022-08-07T13:40:35.759Z,33.64
2022-08-07T13:42:54.955Z,33.65
2022-08-07T13:46:11.683Z,33.66
2022-08-07T13:48:27.511Z,33.69
2022-08-07T13:51:00.279Z,33.74
2022-08-07T13:54:00.598Z,33.78
2022-08-07T13:56:36.135Z,33.82
2022-08-07T13:59:12.355Z,33.83
2022-08-07T14:01:59.419Z,33.86
2022-08-07T14:04:36.174Z,33.91
2022-08-07T14:07:09.432Z,33.94
2022-08-07T14:10:12.128Z,33.96
2022-08-07T14:12:54.102Z,33.97
2022-08-07T14:15:35.100Z,33.99
2022-08-07T14:18:28.873Z,34.00
2022-08-07T14:22:01.088Z,34.01
2022-08-07T14:24:33.413Z,34.01
2022-08-07T14:28:09.662Z,34.02
2022-08-07T14:30:07.112Z,34.04
2022-08-07T14:33:05.752Z,34.04
2022-08-07T14:35:45.249Z,34.02
2022-08-07T14:38:26.368Z,33.99
2022-08-07T14:41:12.116Z,33.99
2022-08-07T14:43:56.983Z,33.98
2022-08-07T14:46:30.533Z,33.98
2022-08-07T14:49:56.086Z,33.99
2022-08-07T14:54:35.924Z,33.96
2022-08-07T14:57:24.896Z,33.94
2022-08-07T15:00:05.128Z,33.93
2022-08-07T15:02:36.847Z,33.90
2022-08-07T15:05:04.865Z,33.87
2022-08-07T15:07:52.144Z,33.85
2022-08-07T15:10:26.786Z,33.84
2022-08-07T15:13:20.439Z,33.82
2022-08-07T15:15:52.797Z,33.80
2022-08-07T15:21:58.759Z,33.75
2022-08-07T15:27:04.743Z,33.66
2022-08-07T15:32:39.953Z,33.57
2022-08-07T15:35:14.871Z,33.55
2022-08-07T15:38:18.174Z,33.54
2022-08-07T15:40:34.518Z,33.50
2022-08-07T15:43:53.373Z,33.47
2022-08-07T15:46:03.517Z,33.42
2022-08-07T15:48:37.500Z,33.36
2022-08-07T15:54:12.358Z,33.25
2022-08-07T15:56:41.838Z,33.19
2022-08-07T15:59:16.503Z,33.14
2022-08-07T16:02:02.423Z,33.09
2022-08-07T16:04:32.075Z,33.03
2022-08-07T16:07:05.172Z,32.98
2022-08-07T16:09:54.644Z,32.91
2022-08-07T16:13:01.042Z,32.85
2022-08-07T16:15:55.004Z,32.79
2022-08-07T16:18:50.782Z,32.73
2022-08-07T16:22:02.347Z,32.66
2022-08-07T16:24:35.562Z,32.58
2022-08-07T16:27:26.685Z,32.51
2022-08-07T16:30:30.743Z,32.43
2022-08-07T16:34:03.354Z,32.34
2022-08-07T16:36:03.261Z,32.26
2022-08-07T16:39:01.344Z,32.18
2022-08-07T16:41:57.291Z,32.11
2022-08-07T16:44:55.413Z,32.04
2022-08-07T16:47:51.216Z,31.95
2022-08-07T16:50:36.938Z,31.87
2022-08-07T16:54:01.213Z,31.79
2022-08-07T16:56:14.804Z,31.71
2022-08-07T16:59:10.973Z,31.64
2022-08-07T17:01:49.928Z,31.55
2022-08-07T17:04:24.290Z,31.48
2022-08-07T17:07:03.473Z,31.41
2022-08-07T17:10:05.231Z,31.32
2022-08-07T17:12:44.729Z,31.24
2022-08-07T17:15:20.277Z,31.16
2022-08-07T17:17:47.914Z,31.10
2022-08-07T17:20:37.472Z,31.04
2022-08-07T17:23:32.395Z,30.98
2022-08-07T17:26:30.597Z,30.92
2022-08-07T17:28:58.613Z,30.85
2022-08-07T17:31:44.362Z,30.79
2022-08-07T17:34:36.702Z,30.71
2022-08-07T17:38:06.260Z,30.64
2022-08-07T17:40:36.556Z,30.55
2022-08-07T17:43:18.129Z,30.50
2022-08-07T17:45:56.764Z,30.45
2022-08-07T17:48:31.098Z,30.38
2022-08-07T17:51:08.448Z,30.30
2022-08-07T17:54:00.095Z,30.24
2022-08-07T17:56:31.827Z,30.19
2022-08-07T17:59:08.973Z,30.12
2022-08-07T18:01:58.537Z,30.04
2022-08-07T18:04:48.880Z,29.94
2022-08-07T18:07:24.139Z,29.84
2022-08-07T18:10:06.197Z,29.77
2022-08-07T18:12:58.571Z,29.72
2022-08-07T18:15:32.843Z,29.67
2022-08-07T18:18:45.243Z,29.62
2022-08-07T18:21:28.743Z,29.60
2022-08-07T18:24:00.972Z,29.59
2022-08-07T18:26:48.189Z,29.58
2022-08-07T18:30:07.342Z,29.56
2022-08-07T18:32:22.295Z,29.53
2022-08-07T18:35:08.176Z,29.49
2022-08-07T18:38:55.880Z,29.46
2022-08-07T18:40:50.284Z,29.44
2022-08-07T18:43:57.769Z,29.42
2022-08-07T18:46:43.122Z,29.41
2022-08-07T18:50:32.459Z,29.41
2022-08-07T18:52:55.008Z,29.39
2022-08-07T18:55:42.843Z,29.35
2022-08-07T18:58:53.562Z,29.31
2022-08-07T19:02:33.926Z,29.30
2022-08-07T19:04:19.706Z,29.28
2022-08-07T19:07:01.452Z,29.22
2022-08-07T19:09:57.454Z,29.20
2022-08-07T19:12:48.713Z,29.23
2022-08-07T19:16:05.330Z,29.24
2022-08-07T19:18:34.465Z,29.21
2022-08-07T19:21:44.113Z,29.17
2022-08-07T19:24:43.141Z,29.17
2022-08-07T19:29:02.950Z,29.19
2022-08-07T19:31:03.258Z,29.25
2022-08-07T19:32:51.845Z,29.35
2022-08-07T19:35:33.021Z,29.44
2022-08-07T19:38:03.753Z,29.52
2022-08-07T19:40:50.347Z,29.58
2022-08-07T19:43:44.104Z,29.63
2022-08-07T19:46:35.781Z,29.68
2022-08-07T19:49:05.766Z,29.72
2022-08-07T19:51:51.872Z,29.75
2022-08-07T19:54:33.902Z,29.78
2022-08-07T19:58:01.098Z,29.81
2022-08-07T20:00:08.979Z,29.82
2022-08-07T20:02:41.298Z,29.82
2022-08-07T20:05:27.802Z,29.82
2022-08-07T20:08:07.191Z,29.81
2022-08-07T20:10:55.091Z,29.81
2022-08-07T20:13:27.055Z,29.81
2022-08-07T20:15:59.964Z,29.81
2022-08-07T20:18:32.217Z,29.81
2022-08-07T20:21:02.555Z,29.81
2022-08-07T20:23:40.698Z,29.82
2022-08-07T20:26:10.065Z,29.83
2022-08-07T20:28:39.191Z,29.84
2022-08-07T20:31:21.360Z,29.87
2022-08-07T20:33:56.323Z,29.88
2022-08-07T20:36:24.104Z,29.88
2022-08-07T20:39:00.850Z,29.89
2022-08-07T20:41:45.863Z,29.88
2022-08-07T20:44:15.450Z,29.89
2022-08-07T20:46:45.496Z,29.88
2022-08-07T20:49:58.480Z,29.87
2022-08-07T20:52:16.381Z,29.84
2022-08-07T20:54:53.316Z,29.82
2022-08-07T20:57:25.801Z,29.79
2022-08-07T21:00:06.869Z,29.77
2022-08-07T21:02:58.736Z,29.73
2022-08-07T21:05:57.238Z,29.70
2022-08-07T21:08:36.701Z,29.61
2022-08-07T21:11:17.218Z,29.56
2022-08-07T21:14:32.024Z,29.53
2022-08-07T21:17:06.399Z,29.46
2022-08-07T21:19:50.710Z,29.42
2022-08-07T21:22:28.303Z,29.39
2022-08-07T21:25:04.477Z,29.37
2022-08-07T21:27:55.850Z,29.36
2022-08-07T21:30:52.047Z,29.31
2022-08-07T21:33:38.341Z,29.24
2022-08-07T21:36:32.738Z,29.18
2022-08-07T21:39:45.779Z,29.09
2022-08-07T21:42:49.328Z,28.96
2022-08-07T21:46:05.123Z,28.82
2022-08-07T21:48:28.514Z,28.69
2022-08-07T21:51:07.710Z,28.58
2022-08-07T21:53:52.824Z,28.54
2022-08-07T21:56:47.957Z,28.49
2022-08-07T22:00:05.099Z,28.44
2022-08-07T22:02:34.827Z,28.35
2022-08-07T22:05:03.186Z,28.33
2022-08-07T22:07:58.356Z,28.32
2022-08-07T22:10:24.528Z,28.32
2022-08-07T22:13:00.027Z,28.30
2022-08-07T22:16:38.482Z,28.25
2022-08-07T22:19:01.214Z,28.23
2022-08-07T22:22:02.042Z,28.20
2022-08-07T22:24:32.653Z,28.20
2022-08-07T22:28:02.979Z,28.16
2022-08-07T22:30:19.890Z,28.17
2022-08-07T22:32:47.584Z,28.19
2022-08-07T22:35:18.063Z,28.18
2022-08-07T22:38:08.129Z,28.18
2022-08-07T22:41:29.108Z,28.20
2022-08-07T22:44:13.002Z,28.21
2022-08-07T22:47:08.697Z,28.17
2022-08-07T22:50:20.517Z,28.13
2022-08-07T22:52:59.242Z,28.09
2022-08-07T22:55:51.430Z,28.09
2022-08-07T22:58:18.742Z,28.06
2022-08-07T23:01:06.321Z,28.06
2022-08-07T23:04:10.095Z,28.08
2022-08-07T23:07:40.326Z,28.05
2022-08-07T23:10:38.451Z,27.96
2022-08-07T23:13:48.427Z,27.86
2022-08-07T23:16:55.829Z,27.80
2022-08-07T23:20:03.856Z,27.81
2022-08-07T23:22:40.437Z,27.85
2022-08-07T23:25:30.307Z,27.83
2022-08-07T23:28:22.046Z,27.78
2022-08-07T23:31:18.582Z,27.75
2022-08-07T23:34:38.296Z,27.72
2022-08-07T23:37:18.627Z,27.65
2022-08-07T23:40:27.939Z,27.59
2022-08-07T23:43:16.485Z,27.49
2022-08-07T23:46:10.923Z,27.38
2022-08-07T23:48:41.260Z,27.28
2022-08-07T23:52:59.824Z,27.22
2022-08-07T23:54:36.477Z,27.17
2022-08-07T23:57:22.320Z,27.11
